createdAt,value
2019-01-26T00:01:42.296Z,60.17
2019-01-26T00:04:11.793Z,78.80
2019-01-26T00:06:41.248Z,56.20
2019-01-26T00:09:10.942Z,56.03
2019-01-26T00:11:40.510Z,55.37
2019-01-26T00:14:10.030Z,58.63
2019-01-26T00:16:39.759Z,62.07
2019-01-26T00:19:09.285Z,70.43
2019-01-26T00:21:38.750Z,88.30
2019-01-26T00:24:08.206Z,74.47
2019-01-26T00:26:37.713Z,55.63
2019-01-26T00:29:07.179Z,69.20
2019-01-26T00:31:36.634Z,59.20
2019-01-26T00:34:06.371Z,56.20
2019-01-26T00:36:35.825Z,56.40
2019-01-26T00:39:08.261Z,57.47
2019-01-26T00:41:38.025Z,57.57
2019-01-26T00:44:07.475Z,64.43
2019-01-26T00:46:36.927Z,60.87
2019-01-26T00:49:06.500Z,65.70
2019-01-26T00:51:35.953Z,61.50
2019-01-26T00:54:05.651Z,61.77
2019-01-26T00:56:35.140Z,63.03
2019-01-26T00:59:06.149Z,65.37
2019-01-26T01:01:35.613Z,74.70
2019-01-26T01:04:05.808Z,65.50
2019-01-26T01:06:35.266Z,61.97
2019-01-26T01:09:08.508Z,91.17
2019-01-26T01:11:38.042Z,58.87
2019-01-26T01:14:07.696Z,78.30
2019-01-26T01:16:37.152Z,67.10
2019-01-26T01:19:06.879Z,72.77
2019-01-26T01:21:36.513Z,59.07
2019-01-26T01:24:06.098Z,73.30
2019-01-26T01:26:35.585Z,62.47
2019-01-26T01:29:05.709Z,73.03
2019-01-26T01:31:35.166Z,73.40
2019-01-26T01:34:04.655Z,75.80
2019-01-26T01:36:34.106Z,68.90
2019-01-26T01:39:05.100Z,67.70
2019-01-26T01:41:34.593Z,70.87
2019-01-26T01:44:04.223Z,62.60
2019-01-26T01:46:33.688Z,62.43
2019-01-26T01:49:03.281Z,80.03
2019-01-26T01:51:32.702Z,70.73
2019-01-26T01:54:02.221Z,65.63
2019-01-26T01:56:31.703Z,59.10
2019-01-26T01:59:01.164Z,69.73
2019-01-26T02:01:30.617Z,61.93
2019-01-26T02:04:00.145Z,74.20
2019-01-26T02:06:29.598Z,63.07
2019-01-26T02:08:59.045Z,53.47
2019-01-26T02:11:28.532Z,73.43
2019-01-26T02:13:57.988Z,51.80
2019-01-26T02:16:27.441Z,58.63
2019-01-26T02:18:56.980Z,58.77
2019-01-26T02:21:26.382Z,55.00
2019-01-26T02:23:55.834Z,57.43
2019-01-26T02:26:25.310Z,61.90
2019-01-26T02:28:54.760Z,53.90
2019-01-26T02:31:24.221Z,51.77
2019-01-26T02:33:53.708Z,51.80
2019-01-26T02:36:23.183Z,48.57
2019-01-26T02:38:52.653Z,52.70
2019-01-26T02:41:22.182Z,50.77
2019-01-26T02:43:51.643Z,54.80
2019-01-26T02:46:21.096Z,54.20
2019-01-26T02:48:50.593Z,53.67
2019-01-26T02:51:20.045Z,50.10
2019-01-26T02:53:49.497Z,54.47
2019-01-26T02:56:18.998Z,50.60
2019-01-26T02:58:48.441Z,42.00
2019-01-26T03:01:17.900Z,48.93
2019-01-26T03:03:47.520Z,54.33
2019-01-26T03:06:16.976Z,45.67
2019-01-26T03:08:46.429Z,55.33
2019-01-26T03:11:15.917Z,57.23
2019-01-26T03:13:45.370Z,49.63
2019-01-26T03:16:14.823Z,47.10
2019-01-26T03:18:44.381Z,45.30
2019-01-26T03:21:13.825Z,48.50
2019-01-26T03:23:43.481Z,50.03
2019-01-26T03:26:13.085Z,51.80
2019-01-26T03:28:42.537Z,44.60
2019-01-26T03:31:12.167Z,45.63
2019-01-26T03:33:41.635Z,44.30
2019-01-26T03:36:11.105Z,43.57
2019-01-26T03:38:40.557Z,50.80
2019-01-26T03:41:10.117Z,46.20
2019-01-26T03:43:39.570Z,48.60
2019-01-26T03:46:10.010Z,50.43
2019-01-26T03:48:39.498Z,39.43
2019-01-26T03:51:08.955Z,46.70
2019-01-26T03:53:38.421Z,38.50
2019-01-26T03:56:07.910Z,55.23
2019-01-26T03:58:37.363Z,39.47
2019-01-26T04:01:06.992Z,38.67
2019-01-26T04:03:36.537Z,43.37
2019-01-26T04:06:06.161Z,44.37
2019-01-26T04:08:35.651Z,49.53
2019-01-26T04:11:05.171Z,36.43
2019-01-26T04:13:34.625Z,41.70
2019-01-26T04:16:04.253Z,42.80
2019-01-26T04:18:33.815Z,45.13
2019-01-26T04:21:03.298Z,38.30
2019-01-26T04:23:32.848Z,39.63
2019-01-26T04:26:02.333Z,46.27
2019-01-26T04:28:31.822Z,42.50
2019-01-26T04:31:01.356Z,35.87
2019-01-26T04:33:30.851Z,42.20
2019-01-26T04:36:00.354Z,38.87
2019-01-26T04:38:29.843Z,41.00
2019-01-26T04:40:59.302Z,46.30
2019-01-26T04:43:28.754Z,40.10
2019-01-26T04:45:58.240Z,36.90
2019-01-26T04:48:27.697Z,43.47
2019-01-26T04:50:57.261Z,32.30
2019-01-26T04:53:26.737Z,47.80
2019-01-26T04:55:56.208Z,52.47
2019-01-26T04:58:25.730Z,43.57
2019-01-26T05:00:55.196Z,44.40
2019-01-26T05:03:24.686Z,44.20
2019-01-26T05:05:54.176Z,47.60
2019-01-26T05:08:23.636Z,51.63
2019-01-26T05:10:53.117Z,38.43
2019-01-26T05:13:22.579Z,45.00
2019-01-26T05:15:52.067Z,47.67
2019-01-26T05:18:21.535Z,44.30
2019-01-26T05:20:51.028Z,39.47
2019-01-26T05:23:20.476Z,46.77
2019-01-26T05:25:49.962Z,40.87
2019-01-26T05:28:19.432Z,42.73
2019-01-26T05:30:49.094Z,39.23
2019-01-26T05:33:18.623Z,43.57
2019-01-26T05:35:48.147Z,41.47
2019-01-26T05:38:17.598Z,40.87
2019-01-26T05:40:47.046Z,42.30
2019-01-26T05:43:16.565Z,44.70
2019-01-26T05:45:46.024Z,36.37
2019-01-26T05:48:15.514Z,37.37
2019-01-26T05:50:44.974Z,40.93
2019-01-26T05:53:14.537Z,46.60
2019-01-26T05:55:43.989Z,36.47
2019-01-26T05:58:13.542Z,43.50
2019-01-26T06:00:42.993Z,47.00
2019-01-26T06:03:12.476Z,37.70
2019-01-26T06:05:41.981Z,34.80
2019-01-26T06:08:11.430Z,36.97
2019-01-26T06:10:40.984Z,45.63
2019-01-26T06:13:10.467Z,38.23
2019-01-26T06:15:39.929Z,40.20
2019-01-26T06:18:09.478Z,40.00
2019-01-26T06:20:38.931Z,37.70
2019-01-26T06:23:08.386Z,36.83
2019-01-26T06:25:37.860Z,33.73
2019-01-26T06:28:07.310Z,33.80
2019-01-26T06:30:36.774Z,32.37
2019-01-26T06:33:06.287Z,35.20
2019-01-26T06:35:35.865Z,34.87
2019-01-26T06:38:05.434Z,35.27
2019-01-26T06:40:34.922Z,36.43
2019-01-26T06:43:04.369Z,34.77
2019-01-26T06:45:33.864Z,34.40
2019-01-26T06:48:03.349Z,34.87
2019-01-26T06:50:32.813Z,38.10
2019-01-26T06:53:02.375Z,35.80
2019-01-26T06:55:31.826Z,41.00
2019-01-26T06:58:01.373Z,43.83
2019-01-26T07:00:31.145Z,38.43
2019-01-26T07:03:00.779Z,36.20
2019-01-26T07:05:34.982Z,36.00
2019-01-26T07:08:04.516Z,42.97
2019-01-26T07:10:33.955Z,40.87
2019-01-26T07:13:03.631Z,32.37
2019-01-26T07:15:33.100Z,36.43
2019-01-26T07:18:09.203Z,39.50
2019-01-26T07:20:33.787Z,40.40
2019-01-26T07:23:22.533Z,41.40
2019-01-26T07:25:51.983Z,42.37
2019-01-26T07:28:21.438Z,39.50
2019-01-26T07:30:50.933Z,32.77
2019-01-26T07:33:20.416Z,34.37
2019-01-26T07:35:49.888Z,41.13
2019-01-26T07:38:19.380Z,38.80
2019-01-26T07:40:48.836Z,33.93
2019-01-26T07:43:18.318Z,48.60
2019-01-26T07:45:47.797Z,29.80
2019-01-26T07:48:17.265Z,40.83
2019-01-26T07:50:46.751Z,32.73
2019-01-26T07:53:16.215Z,44.27
2019-01-26T07:55:45.711Z,35.40
2019-01-26T07:58:15.166Z,42.07
2019-01-26T08:00:44.665Z,34.40
2019-01-26T08:03:14.120Z,40.73
2019-01-26T08:05:43.656Z,43.47
2019-01-26T08:08:13.303Z,33.97
2019-01-26T08:10:44.131Z,49.73
2019-01-26T08:13:13.586Z,46.50
2019-01-26T08:15:43.155Z,48.83
2019-01-26T08:18:12.603Z,38.13
2019-01-26T08:20:42.064Z,45.53
2019-01-26T08:23:11.580Z,30.17
2019-01-26T08:25:41.020Z,33.53
2019-01-26T08:28:10.470Z,42.20
2019-01-26T08:30:39.980Z,36.77
2019-01-26T08:33:09.575Z,33.70
2019-01-26T08:35:39.026Z,38.50
2019-01-26T08:38:08.513Z,31.10
2019-01-26T08:40:37.961Z,31.90
2019-01-26T08:43:07.409Z,35.87
2019-01-26T08:45:36.992Z,37.73
2019-01-26T08:48:07.087Z,32.40
2019-01-26T08:50:36.526Z,30.77
2019-01-26T08:53:06.247Z,36.10
2019-01-26T08:55:35.696Z,30.73
2019-01-26T08:58:05.717Z,31.90
2019-01-26T09:00:35.962Z,32.13
2019-01-26T09:03:07.320Z,36.00
2019-01-26T09:05:41.087Z,34.63
2019-01-26T09:08:10.547Z,32.83
2019-01-26T09:10:40.001Z,33.40
2019-01-26T09:13:09.636Z,27.07
2019-01-26T09:15:39.752Z,31.23
2019-01-26T09:18:09.194Z,30.23
2019-01-26T09:20:38.715Z,34.17
2019-01-26T09:23:08.163Z,47.97
2019-01-26T09:25:37.624Z,29.87
2019-01-26T09:28:07.779Z,50.93
2019-01-26T09:30:37.365Z,43.33
2019-01-26T09:33:06.881Z,31.63
2019-01-26T09:35:36.369Z,38.93
2019-01-26T09:38:06.756Z,46.93
2019-01-26T09:40:36.208Z,51.17
2019-01-26T09:43:06.197Z,29.23
2019-01-26T09:45:35.882Z,49.93
2019-01-26T09:48:06.034Z,57.33
2019-01-26T09:50:35.514Z,41.50
2019-01-26T09:53:05.815Z,30.60
2019-01-26T09:55:35.266Z,37.67
2019-01-26T09:58:05.421Z,31.77
2019-01-26T10:00:34.870Z,36.50
2019-01-26T10:03:04.821Z,35.40
2019-01-26T10:05:34.267Z,37.30
2019-01-26T10:08:03.714Z,35.10
2019-01-26T10:10:33.402Z,59.13
2019-01-26T10:13:02.946Z,36.27
2019-01-26T10:15:32.427Z,26.20
2019-01-26T10:18:01.876Z,52.37
2019-01-26T10:20:35.938Z,33.07
2019-01-26T10:23:05.675Z,32.33
2019-01-26T10:25:35.254Z,35.87
2019-01-26T10:28:05.868Z,36.37
2019-01-26T10:30:43.854Z,48.50
2019-01-26T10:33:13.402Z,40.73
2019-01-26T10:35:56.456Z,36.17
2019-01-26T10:41:09.677Z,41.07
2019-01-26T10:43:40.777Z,35.00
2019-01-26T10:46:10.224Z,43.23
2019-01-26T10:48:39.766Z,48.77
2019-01-26T10:51:28.549Z,36.50
2019-01-26T10:53:58.013Z,38.90
2019-01-26T10:56:27.489Z,40.53
2019-01-26T10:58:56.937Z,38.23
2019-01-26T11:01:26.601Z,36.30
2019-01-26T11:03:56.047Z,29.30
2019-01-26T11:06:25.499Z,41.37
2019-01-26T11:08:54.952Z,31.47
2019-01-26T11:11:24.411Z,31.20
2019-01-26T11:13:53.873Z,41.27
2019-01-26T11:16:23.332Z,34.07
2019-01-26T11:18:52.809Z,38.00
2019-01-26T11:21:22.510Z,45.23
2019-01-26T11:23:51.995Z,31.27
2019-01-26T11:26:21.465Z,29.57
2019-01-26T11:28:50.930Z,28.27
2019-01-26T11:31:20.847Z,34.80
2019-01-26T11:33:50.331Z,34.13
2019-01-26T11:36:19.778Z,45.03
2019-01-26T11:38:49.260Z,30.20
2019-01-26T11:41:18.705Z,30.43
2019-01-26T11:43:48.231Z,52.63
2019-01-26T11:46:19.325Z,54.33
2019-01-26T11:48:48.816Z,43.10
2019-01-26T11:51:19.906Z,41.87
2019-01-26T11:53:49.531Z,30.03
2019-01-26T11:56:20.656Z,32.00
2019-01-26T11:58:50.109Z,39.03
2019-01-26T12:01:37.359Z,36.17
2019-01-26T12:04:20.303Z,29.70
2019-01-26T12:06:51.425Z,41.00
2019-01-26T12:09:20.872Z,39.30
2019-01-26T12:11:50.340Z,39.43
2019-01-26T12:14:19.826Z,75.57
2019-01-26T12:16:49.275Z,30.40
2019-01-26T12:19:22.424Z,40.47
2019-01-26T12:21:49.940Z,43.57
2019-01-26T12:24:19.386Z,38.93
2019-01-26T12:26:48.895Z,45.07
2019-01-26T12:29:18.394Z,63.80
2019-01-26T12:31:47.852Z,33.53
2019-01-26T12:34:17.297Z,36.30
2019-01-26T12:36:46.881Z,39.83
2019-01-26T12:39:16.316Z,43.47
2019-01-26T12:41:45.773Z,29.43
2019-01-26T12:44:15.265Z,47.53
2019-01-26T12:46:44.787Z,34.20
2019-01-26T12:49:14.234Z,54.83
2019-01-26T12:51:43.726Z,37.83
2019-01-26T12:54:13.177Z,38.43
2019-01-26T12:56:42.675Z,42.03
2019-01-26T12:59:12.107Z,43.00
2019-01-26T13:01:41.924Z,52.20
2019-01-26T13:04:11.399Z,42.63
2019-01-26T13:06:40.969Z,48.30
2019-01-26T13:09:10.413Z,41.33
2019-01-26T13:11:39.868Z,59.37
2019-01-26T13:14:09.376Z,29.87
2019-01-26T13:16:38.831Z,30.23
2019-01-26T13:19:08.335Z,41.73
2019-01-26T13:21:37.759Z,41.70
2019-01-26T13:24:07.383Z,38.50
2019-01-26T13:26:36.838Z,59.27
2019-01-26T13:29:07.324Z,36.13
2019-01-26T13:31:36.773Z,34.63
2019-01-26T13:34:06.266Z,33.97
2019-01-26T13:36:35.715Z,41.67
2019-01-26T13:39:08.246Z,39.80
2019-01-26T13:41:38.311Z,45.93
2019-01-26T13:44:07.748Z,36.50
2019-01-26T13:46:37.222Z,49.87
2019-01-26T13:49:06.904Z,43.53
2019-01-26T13:51:36.348Z,47.97
2019-01-26T13:54:06.432Z,31.90
2019-01-26T13:56:36.122Z,31.97
2019-01-26T13:59:05.670Z,51.80
2019-01-26T14:01:35.134Z,24.57
2019-01-26T14:04:04.947Z,35.10
2019-01-26T14:06:34.395Z,33.43
2019-01-26T14:09:05.453Z,34.93
2019-01-26T14:11:34.891Z,35.30
2019-01-26T14:14:04.708Z,30.47
2019-01-26T14:16:34.201Z,51.30
2019-01-26T14:19:04.050Z,33.63
2019-01-26T14:21:33.497Z,31.17
2019-01-26T14:24:02.978Z,44.23
2019-01-26T14:26:32.455Z,47.57
2019-01-26T14:29:01.900Z,31.07
2019-01-26T14:31:31.386Z,52.83
2019-01-26T14:34:00.850Z,52.33
2019-01-26T14:36:30.300Z,49.10
2019-01-26T14:38:59.784Z,45.07
2019-01-26T14:41:29.236Z,53.37
2019-01-26T14:43:58.727Z,41.60
2019-01-26T14:46:28.183Z,48.53
2019-01-26T14:48:57.626Z,61.23
2019-01-26T14:51:27.090Z,55.63
2019-01-26T14:53:56.541Z,58.33
2019-01-26T14:56:26.027Z,42.30
2019-01-26T14:58:55.471Z,42.10
2019-01-26T15:01:24.951Z,56.67
2019-01-26T15:03:54.568Z,24.30
2019-01-26T15:06:24.175Z,38.43
2019-01-26T15:08:53.622Z,55.00
2019-01-26T15:11:23.776Z,39.43
2019-01-26T15:13:53.384Z,61.93
2019-01-26T15:16:22.831Z,84.27
2019-01-26T15:18:52.330Z,31.03
2019-01-26T15:21:21.777Z,48.50
2019-01-26T15:23:51.219Z,61.63
2019-01-26T15:26:20.718Z,52.50
2019-01-26T15:28:50.165Z,64.20
2019-01-26T15:31:19.613Z,67.30
2019-01-26T15:33:49.129Z,54.53
2019-01-26T15:36:18.577Z,69.67
2019-01-26T15:38:48.025Z,95.17
2019-01-26T15:41:17.549Z,30.20
2019-01-26T15:43:46.994Z,96.37
2019-01-26T15:46:16.442Z,190.67
2019-01-26T15:48:45.939Z,146.30
2019-01-26T15:51:15.406Z,87.50
2019-01-26T15:53:44.850Z,81.80
2019-01-26T15:56:14.317Z,80.73
2019-01-26T15:58:45.315Z,78.53
2019-01-26T16:01:14.765Z,62.33
2019-01-26T16:03:44.312Z,72.17
2019-01-26T16:06:14.107Z,45.93
2019-01-26T16:08:43.608Z,62.43
2019-01-26T16:11:13.129Z,79.57
2019-01-26T16:13:42.582Z,187.53
2019-01-26T16:16:13.677Z,73.23
2019-01-26T16:18:43.162Z,54.73
2019-01-26T16:21:12.616Z,80.63
2019-01-26T16:23:42.088Z,78.13
2019-01-26T16:26:11.565Z,69.20
2019-01-26T16:28:41.027Z,56.27
2019-01-26T16:31:10.511Z,97.40
2019-01-26T16:33:39.965Z,98.23
2019-01-26T16:36:09.615Z,84.87
2019-01-26T16:38:39.065Z,52.53
2019-01-26T16:41:08.612Z,77.10
2019-01-26T16:43:38.102Z,56.23
2019-01-26T16:46:07.546Z,54.17
2019-01-26T16:48:37.034Z,52.63
2019-01-26T16:51:06.484Z,68.63
2019-01-26T16:53:35.932Z,56.60
2019-01-26T16:56:05.839Z,47.90
2019-01-26T16:58:35.332Z,68.03
2019-01-26T17:01:05.118Z,62.53
2019-01-26T17:03:34.565Z,56.40
2019-01-26T17:06:04.486Z,48.33
2019-01-26T17:08:33.931Z,56.97
2019-01-26T17:11:03.872Z,50.03
2019-01-26T17:13:33.386Z,41.10
2019-01-26T17:16:02.836Z,36.67
2019-01-26T17:18:32.278Z,54.07
2019-01-26T17:21:03.130Z,38.03
2019-01-26T17:23:32.575Z,50.73
2019-01-26T17:26:02.059Z,44.27
2019-01-26T17:28:31.530Z,36.67
2019-01-26T17:31:02.364Z,46.17
2019-01-26T17:33:31.812Z,48.20
2019-01-26T17:36:01.274Z,56.63
2019-01-26T17:38:30.783Z,35.50
2019-01-26T17:41:00.232Z,39.43
2019-01-26T17:43:29.716Z,42.37
2019-01-26T17:45:59.167Z,38.43
2019-01-26T17:48:28.650Z,37.70
2019-01-26T17:50:58.078Z,34.87
2019-01-26T17:53:27.547Z,46.23
2019-01-26T17:55:57.006Z,41.83
2019-01-26T17:58:26.463Z,48.40
2019-01-26T18:00:56.795Z,38.27
2019-01-26T18:03:26.582Z,41.97
2019-01-26T18:05:56.031Z,31.57
2019-01-26T18:08:25.517Z,38.27
2019-01-26T18:10:54.962Z,39.30
2019-01-26T18:13:26.027Z,40.30
2019-01-26T18:15:56.062Z,36.67
2019-01-26T18:18:25.653Z,42.50
2019-01-26T18:20:55.200Z,32.90
2019-01-26T18:23:25.625Z,46.20
2019-01-26T18:25:55.380Z,61.20
2019-01-26T18:28:24.834Z,52.00
2019-01-26T18:30:54.443Z,42.70
2019-01-26T18:33:23.922Z,37.60
2019-01-26T18:35:53.369Z,62.97
2019-01-26T18:38:22.857Z,44.83
2019-01-26T18:40:52.377Z,49.47
2019-01-26T18:43:21.872Z,46.53
2019-01-26T18:45:51.383Z,49.07
2019-01-26T18:48:21.014Z,49.20
2019-01-26T18:50:56.134Z,44.90
2019-01-26T18:53:22.010Z,37.00
2019-01-26T18:55:53.049Z,39.67
2019-01-26T18:58:22.496Z,45.10
2019-01-26T19:00:51.973Z,43.10
2019-01-26T19:03:37.931Z,38.00
2019-01-26T19:06:07.600Z,44.60
2019-01-26T19:08:37.054Z,37.23
2019-01-26T19:11:06.538Z,46.17
2019-01-26T19:13:36.339Z,46.93
2019-01-26T19:16:05.853Z,51.60
2019-01-26T19:18:35.344Z,33.93
2019-01-26T19:21:04.961Z,40.13
2019-01-26T19:23:34.409Z,40.30
2019-01-26T19:26:04.061Z,56.50
2019-01-26T19:28:33.505Z,42.50
2019-01-26T19:31:04.476Z,41.03
2019-01-26T19:33:33.935Z,52.63
2019-01-26T19:36:03.486Z,95.37
2019-01-26T19:38:32.940Z,64.30
2019-01-26T19:41:02.440Z,80.27
2019-01-26T19:43:31.892Z,56.03
2019-01-26T19:46:01.343Z,69.73
2019-01-26T19:48:50.169Z,67.27
2019-01-26T19:51:19.617Z,69.50
2019-01-26T19:53:49.114Z,95.67
2019-01-26T19:56:18.567Z,86.40
2019-01-26T19:58:48.169Z,63.03
2019-01-26T20:01:17.698Z,46.43
2019-01-26T20:03:47.155Z,37.90
2019-01-26T20:06:16.729Z,52.17
2019-01-26T20:08:46.186Z,64.50
2019-01-26T20:11:15.716Z,55.13
2019-01-26T20:13:45.308Z,58.00
2019-01-26T20:16:14.724Z,84.83
2019-01-26T20:18:44.220Z,60.77
2019-01-26T20:21:17.588Z,68.07
2019-01-26T20:23:44.948Z,71.40
2019-01-26T20:26:14.430Z,46.77
2019-01-26T20:28:43.877Z,53.60
2019-01-26T20:31:13.359Z,45.90
2019-01-26T20:33:42.858Z,57.60
2019-01-26T20:36:12.323Z,51.70
2019-01-26T20:38:41.812Z,69.87
2019-01-26T20:41:11.256Z,50.90
2019-01-26T20:43:40.738Z,87.47
2019-01-26T20:46:10.190Z,71.50
2019-01-26T20:48:41.089Z,63.07
2019-01-26T20:51:10.532Z,82.20
2019-01-26T20:53:39.977Z,55.80
2019-01-26T20:56:09.464Z,49.80
2019-01-26T20:58:38.914Z,76.40
2019-01-26T21:01:08.362Z,60.13
2019-01-26T21:03:37.867Z,84.67
2019-01-26T21:06:07.648Z,79.53
2019-01-26T21:08:37.100Z,76.10
2019-01-26T21:11:06.674Z,66.47
2019-01-26T21:13:36.818Z,70.87
2019-01-26T21:16:06.441Z,68.67
2019-01-26T21:18:35.889Z,53.17
2019-01-26T21:21:05.844Z,61.17
2019-01-26T21:23:35.330Z,82.03
2019-01-26T21:26:05.004Z,88.87
2019-01-26T21:28:34.438Z,55.53
2019-01-26T21:31:03.925Z,66.03
2019-01-26T21:33:33.371Z,55.50
2019-01-26T21:36:03.495Z,53.47
2019-01-26T21:38:33.038Z,73.07
2019-01-26T21:41:02.491Z,67.37
2019-01-26T21:43:31.937Z,41.83
2019-01-26T21:46:01.423Z,42.80
2019-01-26T21:48:30.873Z,51.40
2019-01-26T21:51:00.332Z,54.67
2019-01-26T21:53:29.814Z,52.50
2019-01-26T21:55:59.303Z,58.63
2019-01-26T21:58:28.751Z,46.37
2019-01-26T22:00:58.226Z,50.43
2019-01-26T22:03:27.682Z,47.00
2019-01-26T22:05:57.128Z,58.20
2019-01-26T22:08:26.692Z,40.93
2019-01-26T22:10:56.143Z,50.70
2019-01-26T22:13:25.660Z,45.63
2019-01-26T22:15:55.131Z,44.03
2019-01-26T22:18:24.652Z,61.07
2019-01-26T22:20:54.184Z,47.50
2019-01-26T22:23:23.648Z,59.87
2019-01-26T22:25:53.095Z,55.20
2019-01-26T22:28:22.574Z,43.67
2019-01-26T22:30:52.058Z,50.63
2019-01-26T22:33:21.515Z,53.07
2019-01-26T22:35:50.960Z,44.97
2019-01-26T22:38:20.449Z,56.90
2019-01-26T22:40:49.892Z,53.30
2019-01-26T22:43:19.342Z,52.97
2019-01-26T22:45:48.831Z,61.53
2019-01-26T22:48:18.276Z,59.50
2019-01-26T22:50:47.724Z,52.23
2019-01-26T22:53:17.299Z,46.60
2019-01-26T22:55:46.756Z,47.17
2019-01-26T22:58:16.208Z,52.20
2019-01-26T23:00:59.792Z,45.10
2019-01-26T23:03:49.478Z,63.73
2019-01-26T23:06:41.551Z,54.20
2019-01-26T23:09:21.279Z,50.10
2019-01-26T23:12:16.511Z,64.83
2019-01-26T23:15:17.087Z,39.80
2019-01-26T23:17:59.221Z,68.20
2019-01-26T23:20:45.440Z,40.80
2019-01-26T23:23:25.211Z,46.20
2019-01-26T23:26:10.863Z,51.47
2019-01-26T23:28:44.953Z,55.50
2019-01-26T23:31:17.613Z,49.20
2019-01-26T23:33:48.266Z,47.83
2019-01-26T23:36:18.432Z,47.97
2019-01-26T23:38:48.014Z,39.37
2019-01-26T23:41:17.528Z,42.07
2019-01-26T23:43:47.093Z,40.63
2019-01-26T23:46:18.178Z,43.60
2019-01-26T23:48:47.672Z,54.67
2019-01-26T23:51:17.121Z,51.10
2019-01-26T23:53:46.567Z,44.23
2019-01-26T23:56:16.020Z,46.40
2019-01-26T23:58:45.550Z,46.33
